createdAt,value
2017-10-05T00:02:09.572Z,4.20
2017-10-05T00:04:36.023Z,4.60
2017-10-05T00:07:03.300Z,4.43
2017-10-05T00:09:33.235Z,4.25
2017-10-05T00:11:59.793Z,4.20
2017-10-05T00:14:26.350Z,4.78
2017-10-05T00:16:53.624Z,4.43
2017-10-05T00:19:20.184Z,4.28
2017-10-05T00:21:46.632Z,4.60
2017-10-05T00:24:13.912Z,4.70
2017-10-05T00:26:41.095Z,4.70
2017-10-05T00:29:07.643Z,4.20
2017-10-05T00:31:34.203Z,4.90
2017-10-05T00:34:01.447Z,4.60
2017-10-05T00:36:29.465Z,4.78
2017-10-05T00:38:56.399Z,4.62
2017-10-05T00:41:23.743Z,4.50
2017-10-05T00:43:50.267Z,5.40
2017-10-05T00:46:17.525Z,5.30
2017-10-05T00:48:44.815Z,5.80
2017-10-05T00:51:12.019Z,5.10
2017-10-05T00:53:38.519Z,5.50
2017-10-05T00:56:05.108Z,4.72
2017-10-05T00:58:31.764Z,5.20
2017-10-05T01:00:59.049Z,4.90
2017-10-05T01:03:25.803Z,5.40
2017-10-05T01:05:52.360Z,5.40
2017-10-05T01:08:19.634Z,5.40
2017-10-05T01:10:46.296Z,5.10
2017-10-05T01:13:13.478Z,5.57
2017-10-05T01:15:39.944Z,5.55
2017-10-05T01:18:06.482Z,5.55
2017-10-05T01:20:33.039Z,6.10
2017-10-05T01:23:00.352Z,5.70
2017-10-05T01:25:26.860Z,5.70
2017-10-05T01:27:53.391Z,5.70
2017-10-05T01:30:20.092Z,5.80
2017-10-05T01:32:46.653Z,5.50
2017-10-05T01:35:13.217Z,6.00
2017-10-05T01:37:39.772Z,5.62
2017-10-05T01:40:06.213Z,6.00
2017-10-05T01:42:33.501Z,5.40
2017-10-05T01:45:00.773Z,5.75
2017-10-05T01:47:27.947Z,5.20
2017-10-05T01:49:55.201Z,5.80
2017-10-05T01:52:22.408Z,5.60
2017-10-05T01:54:48.948Z,6.10
2017-10-05T01:57:16.135Z,5.93
2017-10-05T01:59:42.571Z,5.70
2017-10-05T02:02:09.748Z,6.32
2017-10-05T02:04:36.920Z,5.20
2017-10-05T02:07:04.130Z,5.47
2017-10-05T02:09:30.642Z,5.20
2017-10-05T02:11:57.851Z,5.40
2017-10-05T02:14:24.382Z,5.10
2017-10-05T02:16:51.658Z,5.20
2017-10-05T02:19:18.862Z,5.70
2017-10-05T02:21:45.282Z,5.32
2017-10-05T02:24:11.845Z,5.53
2017-10-05T02:26:38.320Z,5.20
2017-10-05T02:29:04.861Z,5.32
2017-10-05T02:31:31.418Z,5.30
2017-10-05T02:33:58.591Z,5.03
2017-10-05T02:36:25.147Z,4.95
2017-10-05T02:38:52.355Z,4.90
2017-10-05T02:41:18.787Z,4.68
2017-10-05T02:43:45.340Z,4.78
2017-10-05T02:46:11.893Z,6.07
2017-10-05T02:48:38.386Z,4.95
2017-10-05T02:51:04.912Z,5.05
2017-10-05T02:53:31.569Z,4.80
2017-10-05T02:55:58.002Z,5.40
2017-10-05T02:58:25.223Z,4.90
2017-10-05T03:00:51.689Z,4.50
2017-10-05T03:03:18.125Z,4.70
2017-10-05T03:05:45.586Z,5.00
2017-10-05T03:08:12.865Z,5.30
2017-10-05T03:10:39.322Z,4.90
2017-10-05T03:13:05.774Z,4.80
2017-10-05T03:15:32.331Z,4.50
2017-10-05T03:18:00.469Z,5.43
2017-10-05T03:20:26.926Z,5.43
2017-10-05T03:22:53.541Z,5.10
2017-10-05T03:25:20.723Z,4.50
2017-10-05T03:27:47.173Z,4.80
2017-10-05T03:30:17.413Z,5.03
2017-10-05T03:32:44.495Z,5.90
2017-10-05T03:35:10.941Z,5.35
2017-10-05T03:37:37.391Z,5.30
2017-10-05T03:40:03.893Z,4.72
2017-10-05T03:42:30.484Z,5.50
2017-10-05T03:44:56.987Z,5.43
2017-10-05T03:47:23.523Z,5.60
2017-10-05T03:49:50.797Z,5.40
2017-10-05T03:52:18.022Z,6.07
2017-10-05T03:54:44.635Z,5.85
2017-10-05T03:57:11.188Z,5.60
2017-10-05T03:59:37.951Z,5.80
2017-10-05T04:02:04.462Z,5.87
2017-10-05T04:04:30.926Z,6.30
2017-10-05T04:06:57.525Z,6.80
2017-10-05T04:09:24.720Z,6.20
2017-10-05T04:11:54.425Z,6.80
2017-10-05T04:14:21.626Z,6.43
2017-10-05T04:16:48.143Z,6.47
2017-10-05T04:19:15.431Z,6.40
2017-10-05T04:21:41.925Z,6.50
2017-10-05T04:24:08.445Z,6.15
2017-10-05T04:26:34.923Z,6.78
2017-10-05T04:29:01.461Z,6.50
2017-10-05T04:31:28.683Z,7.20
2017-10-05T04:33:55.293Z,6.10
2017-10-05T04:36:22.573Z,7.03
2017-10-05T04:38:49.125Z,6.62
2017-10-05T04:41:16.314Z,6.00
2017-10-05T04:43:42.812Z,5.90
2017-10-05T04:46:09.312Z,5.70
2017-10-05T04:48:36.690Z,5.70
2017-10-05T04:51:03.252Z,5.30
2017-10-05T04:53:29.806Z,5.70
2017-10-05T04:55:57.114Z,5.65
2017-10-05T04:58:23.638Z,4.97
2017-10-05T05:00:50.912Z,4.60
2017-10-05T05:03:18.142Z,4.93
2017-10-05T05:05:44.644Z,5.00
2017-10-05T05:08:12.021Z,4.40
2017-10-05T05:10:39.244Z,4.55
2017-10-05T05:13:05.789Z,5.20
2017-10-05T05:15:32.249Z,4.90
2017-10-05T05:17:58.717Z,4.60
2017-10-05T05:20:25.293Z,5.00
2017-10-05T05:22:51.729Z,5.10
2017-10-05T05:25:18.235Z,4.80
2017-10-05T05:27:45.456Z,4.50
2017-10-05T05:30:11.930Z,4.50
2017-10-05T05:32:38.400Z,4.10
2017-10-05T05:35:04.845Z,4.20
2017-10-05T05:37:31.437Z,4.40
2017-10-05T05:39:58.654Z,3.87
2017-10-05T05:42:25.722Z,4.03
2017-10-05T05:44:52.236Z,4.70
2017-10-05T05:47:19.470Z,4.40
2017-10-05T05:49:46.681Z,4.10
2017-10-05T05:52:14.062Z,3.75
2017-10-05T05:54:40.617Z,4.28
2017-10-05T05:57:07.828Z,3.50
2017-10-05T05:59:34.453Z,3.70
2017-10-05T06:02:01.010Z,3.50
2017-10-05T06:04:28.097Z,3.60
2017-10-05T06:06:54.623Z,3.30
2017-10-05T06:09:22.756Z,3.47
2017-10-05T06:11:49.289Z,2.92
2017-10-05T06:14:15.788Z,3.40
2017-10-05T06:16:42.323Z,3.08
2017-10-05T06:19:08.795Z,3.40
2017-10-05T06:21:35.910Z,3.15
2017-10-05T06:24:02.435Z,2.80
2017-10-05T06:26:28.881Z,3.60
2017-10-05T06:28:56.657Z,3.08
2017-10-05T06:31:23.096Z,2.87
2017-10-05T06:33:49.527Z,3.20
2017-10-05T06:36:16.823Z,3.00
2017-10-05T06:38:43.476Z,3.00
2017-10-05T06:41:10.854Z,2.53
2017-10-05T06:43:37.412Z,1.92
2017-10-05T06:46:04.688Z,1.95
2017-10-05T06:48:31.154Z,1.80
2017-10-05T06:50:57.702Z,2.10
2017-10-05T06:53:24.976Z,1.90
2017-10-05T06:55:52.168Z,1.80
2017-10-05T06:58:18.653Z,2.00
2017-10-05T07:00:45.264Z,2.40
2017-10-05T07:03:11.824Z,2.30
2017-10-05T07:05:38.998Z,2.35
2017-10-05T07:08:05.498Z,3.10
2017-10-05T07:10:32.437Z,3.00
2017-10-05T07:12:58.879Z,3.40
2017-10-05T07:15:25.335Z,3.72
2017-10-05T07:17:52.010Z,4.53
2017-10-05T07:20:18.521Z,4.70
2017-10-05T07:22:45.069Z,5.20
2017-10-05T07:25:11.551Z,4.72
2017-10-05T07:27:38.839Z,4.70
2017-10-05T07:30:06.062Z,5.85
2017-10-05T07:32:32.571Z,5.60
2017-10-05T07:34:59.058Z,4.90
2017-10-05T07:37:25.485Z,5.22
2017-10-05T07:39:52.048Z,5.60
2017-10-05T07:42:18.599Z,5.37
2017-10-05T07:44:45.114Z,5.18
2017-10-05T07:47:11.715Z,5.00
2017-10-05T07:49:38.206Z,4.25
2017-10-05T07:52:04.674Z,5.13
2017-10-05T07:54:31.186Z,4.40
2017-10-05T07:56:57.746Z,4.27
2017-10-05T07:59:24.303Z,4.10
2017-10-05T08:01:52.062Z,4.30
2017-10-05T08:04:18.571Z,4.55
2017-10-05T08:06:45.084Z,4.60
2017-10-05T08:09:12.384Z,4.80
2017-10-05T08:11:38.937Z,4.10
2017-10-05T08:14:05.495Z,4.30
2017-10-05T08:16:32.741Z,3.87
2017-10-05T08:18:59.226Z,4.10
2017-10-05T08:21:25.679Z,4.00
2017-10-05T08:23:53.677Z,4.00
2017-10-05T08:26:20.780Z,4.00
2017-10-05T08:28:47.301Z,3.70
2017-10-05T08:31:13.756Z,4.00
2017-10-05T08:33:41.042Z,4.00
2017-10-05T08:36:07.521Z,3.40
2017-10-05T08:38:33.992Z,3.85
2017-10-05T08:41:00.490Z,3.60
2017-10-05T08:43:27.710Z,3.40
2017-10-05T08:45:54.232Z,3.50
2017-10-05T08:48:21.450Z,3.17
2017-10-05T08:50:47.963Z,3.45
2017-10-05T08:53:14.419Z,3.53
2017-10-05T08:55:40.977Z,3.00
2017-10-05T08:58:08.252Z,3.60
2017-10-05T09:00:35.526Z,3.10
2017-10-05T09:03:02.799Z,3.00
2017-10-05T09:05:30.277Z,2.72
2017-10-05T09:07:57.443Z,2.90
2017-10-05T09:10:25.847Z,3.22
2017-10-05T09:12:52.410Z,3.22
2017-10-05T09:15:19.683Z,3.67
2017-10-05T09:17:46.109Z,3.20
2017-10-05T09:20:12.799Z,3.10
2017-10-05T09:22:40.019Z,2.80
2017-10-05T09:25:06.531Z,2.80
2017-10-05T09:27:32.975Z,2.92
2017-10-05T09:30:00.187Z,3.00
2017-10-05T09:32:26.675Z,3.00
2017-10-05T09:34:53.154Z,2.80
2017-10-05T09:37:20.446Z,2.80
2017-10-05T09:39:47.722Z,2.60
2017-10-05T09:42:14.280Z,2.80
2017-10-05T09:44:41.554Z,3.17
2017-10-05T09:47:09.222Z,2.70
2017-10-05T09:49:36.512Z,3.30
2017-10-05T09:52:03.688Z,2.67
2017-10-05T09:54:30.346Z,3.50
2017-10-05T09:56:57.580Z,2.80
2017-10-05T09:59:24.180Z,3.08
2017-10-05T10:01:50.678Z,2.80
2017-10-05T10:04:17.194Z,3.20
2017-10-05T10:06:43.747Z,2.70
2017-10-05T10:09:10.963Z,2.90
2017-10-05T10:11:41.062Z,3.00
2017-10-05T10:14:08.260Z,3.00
2017-10-05T10:16:34.791Z,2.90
2017-10-05T10:19:01.350Z,3.30
2017-10-05T10:21:27.829Z,3.00
2017-10-05T10:23:54.873Z,2.90
2017-10-05T10:26:22.043Z,2.90
2017-10-05T10:28:49.323Z,2.75
2017-10-05T10:31:15.881Z,2.87
2017-10-05T10:33:43.154Z,2.60
2017-10-05T10:36:11.002Z,2.60
2017-10-05T10:38:37.451Z,2.65
2017-10-05T10:41:03.940Z,2.80
2017-10-05T10:43:31.229Z,2.53
2017-10-05T10:45:57.795Z,2.90
2017-10-05T10:48:24.294Z,2.72
2017-10-05T10:50:50.770Z,2.80
2017-10-05T10:53:17.361Z,2.90
2017-10-05T10:55:44.738Z,2.90
2017-10-05T10:58:12.628Z,2.80
2017-10-05T11:00:39.188Z,2.40
2017-10-05T11:03:05.803Z,2.53
2017-10-05T11:05:32.403Z,2.72
2017-10-05T11:07:58.961Z,2.50
2017-10-05T11:10:26.239Z,2.70
2017-10-05T11:12:52.737Z,2.70
2017-10-05T11:15:19.217Z,2.80
2017-10-05T11:17:46.527Z,2.47
2017-10-05T11:20:13.027Z,2.50
2017-10-05T11:22:39.551Z,2.70
2017-10-05T11:25:06.118Z,2.50
2017-10-05T11:27:32.661Z,2.60
2017-10-05T11:29:59.131Z,2.42
2017-10-05T11:32:25.726Z,2.65
2017-10-05T11:34:52.230Z,2.60
2017-10-05T11:37:19.432Z,2.80
2017-10-05T11:39:45.906Z,3.40
2017-10-05T11:42:12.923Z,3.12
2017-10-05T11:44:40.152Z,3.30
2017-10-05T11:47:06.965Z,3.00
2017-10-05T11:49:34.033Z,3.00
2017-10-05T11:52:00.514Z,3.45
2017-10-05T11:54:27.431Z,3.17
2017-10-05T11:56:54.665Z,3.37
2017-10-05T11:59:21.190Z,4.80
2017-10-05T12:01:47.681Z,4.28
2017-10-05T12:04:14.311Z,3.10
2017-10-05T12:06:40.776Z,2.80
2017-10-05T12:09:07.525Z,2.80
2017-10-05T12:11:34.391Z,2.90
2017-10-05T12:14:00.951Z,2.70
2017-10-05T12:16:28.019Z,3.30
2017-10-05T12:18:54.577Z,2.58
2017-10-05T12:21:21.340Z,2.58
2017-10-05T12:23:47.967Z,2.72
2017-10-05T12:26:14.436Z,2.20
2017-10-05T12:28:41.516Z,2.30
2017-10-05T12:31:08.800Z,2.10
2017-10-05T12:33:35.302Z,2.58
2017-10-05T12:36:01.918Z,4.50
2017-10-05T12:38:29.193Z,2.30
2017-10-05T12:40:55.754Z,1.98
2017-10-05T12:43:22.312Z,2.10
2017-10-05T12:45:48.972Z,2.30
2017-10-05T12:48:15.528Z,2.20
2017-10-05T12:50:42.086Z,2.10
2017-10-05T12:53:08.646Z,1.70
2017-10-05T12:55:35.797Z,1.80
2017-10-05T12:58:02.374Z,1.70
2017-10-05T13:00:29.550Z,1.80
2017-10-05T13:02:56.824Z,1.60
2017-10-05T13:05:23.487Z,1.70
2017-10-05T13:07:50.008Z,1.65
2017-10-05T13:10:17.238Z,2.50
2017-10-05T13:12:43.977Z,1.80
2017-10-05T13:15:10.953Z,2.30
2017-10-05T13:17:37.502Z,1.80
2017-10-05T13:20:04.061Z,1.98
2017-10-05T13:22:30.620Z,2.03
2017-10-05T13:24:57.080Z,1.95
2017-10-05T13:27:23.537Z,1.62
2017-10-05T13:29:50.089Z,1.80
2017-10-05T13:32:16.647Z,1.60
2017-10-05T13:34:43.890Z,1.55
2017-10-05T13:37:10.894Z,1.80
2017-10-05T13:39:37.554Z,1.60
2017-10-05T13:42:04.110Z,1.70
2017-10-05T13:44:31.384Z,2.30
2017-10-05T13:46:57.944Z,5.32
2017-10-05T13:49:24.691Z,1.80
2017-10-05T13:51:51.978Z,2.30
2017-10-05T13:54:18.537Z,2.15
2017-10-05T13:56:44.993Z,2.03
2017-10-05T13:59:11.448Z,2.50
2017-10-05T14:01:38.657Z,2.85
2017-10-05T14:04:05.347Z,2.33
2017-10-05T14:06:32.045Z,3.08
2017-10-05T14:08:58.707Z,2.20
2017-10-05T14:11:25.366Z,2.20
2017-10-05T14:13:51.924Z,1.95
2017-10-05T14:16:18.463Z,2.30
2017-10-05T14:18:45.963Z,2.20
2017-10-05T14:21:12.830Z,2.00
2017-10-05T14:23:39.830Z,1.85
2017-10-05T14:26:07.478Z,1.50
2017-10-05T14:28:36.082Z,1.60
2017-10-05T14:31:04.069Z,1.65
2017-10-05T14:33:31.339Z,1.60
2017-10-05T14:35:58.575Z,1.80
2017-10-05T14:38:25.591Z,1.30
2017-10-05T14:40:52.557Z,1.30
2017-10-05T14:43:20.549Z,1.60
2017-10-05T14:45:47.893Z,1.20
2017-10-05T14:48:14.983Z,1.40
2017-10-05T14:50:42.185Z,1.40
2017-10-05T14:53:09.030Z,1.60
2017-10-05T14:55:35.998Z,1.33
2017-10-05T14:58:02.661Z,1.52
2017-10-05T15:00:30.341Z,1.40
2017-10-05T15:02:57.665Z,1.60
2017-10-05T15:05:24.276Z,1.20
2017-10-05T15:07:50.838Z,1.12
2017-10-05T15:10:17.393Z,1.50
2017-10-05T15:12:43.952Z,2.00
2017-10-05T15:15:10.406Z,2.00
2017-10-05T15:17:40.341Z,2.08
2017-10-05T15:20:08.032Z,1.30
2017-10-05T15:22:34.995Z,1.20
2017-10-05T15:25:03.618Z,1.10
2017-10-05T15:27:30.160Z,6.28
2017-10-05T15:29:56.917Z,2.35
2017-10-05T15:32:23.366Z,6.45
2017-10-05T15:34:50.636Z,1.20
2017-10-05T15:37:17.870Z,1.15
2017-10-05T15:39:44.379Z,1.00
2017-10-05T15:42:11.757Z,1.40
2017-10-05T15:44:38.234Z,1.73
2017-10-05T15:47:05.591Z,1.70
2017-10-05T15:49:32.719Z,1.35
2017-10-05T15:51:59.319Z,1.80
2017-10-05T15:54:26.717Z,1.48
2017-10-05T15:56:53.765Z,1.80
2017-10-05T15:59:20.531Z,1.70
2017-10-05T16:01:47.167Z,1.17
2017-10-05T16:04:14.409Z,1.50
2017-10-05T16:06:40.897Z,1.15
2017-10-05T16:09:07.374Z,1.70
2017-10-05T16:11:34.653Z,1.00
2017-10-05T16:14:01.101Z,1.00
2017-10-05T16:16:28.295Z,1.60
2017-10-05T16:18:54.839Z,1.40
2017-10-05T16:21:22.012Z,1.10
2017-10-05T16:23:49.052Z,1.00
2017-10-05T16:26:15.534Z,1.00
2017-10-05T16:28:42.808Z,1.10
2017-10-05T16:31:10.084Z,1.02
2017-10-05T16:33:36.609Z,1.40
2017-10-05T16:36:03.917Z,1.20
2017-10-05T16:38:30.475Z,2.12
2017-10-05T16:40:57.137Z,2.17
2017-10-05T16:43:23.695Z,1.85
2017-10-05T16:45:50.256Z,2.40
2017-10-05T16:48:16.763Z,1.70
2017-10-05T16:50:43.761Z,5.10
2017-10-05T16:53:11.053Z,1.40
2017-10-05T16:55:38.408Z,0.90
2017-10-05T16:58:05.629Z,1.20
2017-10-05T17:00:32.262Z,0.60
2017-10-05T17:02:58.818Z,0.90
2017-10-05T17:05:26.630Z,1.10
2017-10-05T17:07:53.236Z,0.90
2017-10-05T17:12:23.751Z,0.70
2017-10-05T17:14:50.238Z,0.70
2017-10-05T17:17:17.512Z,0.60
2017-10-05T17:19:45.094Z,0.90
2017-10-05T17:22:12.162Z,0.70
2017-10-05T17:24:39.543Z,2.57
2017-10-05T17:27:06.666Z,4.90
2017-10-05T17:29:33.580Z,4.65
2017-10-05T17:32:00.556Z,1.52
2017-10-05T17:34:27.379Z,2.15
2017-10-05T17:36:55.911Z,1.63
2017-10-05T17:39:27.278Z,1.00
2017-10-05T17:41:54.254Z,0.60
2017-10-05T17:44:20.903Z,0.95
2017-10-05T17:46:49.099Z,1.00
2017-10-05T17:49:16.271Z,0.70
2017-10-05T17:51:43.341Z,0.80
2017-10-05T17:54:10.478Z,0.95
2017-10-05T17:56:37.991Z,1.00
2017-10-05T17:59:06.613Z,0.90
2017-10-05T18:01:34.891Z,0.65
2017-10-05T18:04:05.411Z,0.80
2017-10-05T18:06:36.218Z,1.02
2017-10-05T18:09:06.621Z,1.30
2017-10-05T18:11:35.372Z,3.30
2017-10-05T18:14:03.030Z,3.95
2017-10-05T18:16:34.905Z,1.60
2017-10-05T18:19:02.797Z,1.00
2017-10-05T18:21:30.684Z,1.00
2017-10-05T18:23:59.284Z,1.10
2017-10-05T18:26:29.676Z,1.00
2017-10-05T18:28:58.903Z,1.20
2017-10-05T18:31:27.542Z,0.90
2017-10-05T18:33:56.802Z,1.20
2017-10-05T18:36:29.991Z,1.00
2017-10-05T18:39:00.087Z,1.40
2017-10-05T18:41:31.154Z,0.90
2017-10-05T18:43:59.771Z,0.90
2017-10-05T18:46:31.653Z,0.90
2017-10-05T18:49:01.342Z,0.90
2017-10-05T18:51:30.247Z,1.20
2017-10-05T18:53:58.180Z,1.10
2017-10-05T18:56:31.196Z,0.80
2017-10-05T18:59:00.403Z,1.50
2017-10-05T19:01:28.409Z,1.00
2017-10-05T19:03:55.559Z,0.80
2017-10-05T19:06:23.039Z,1.10
2017-10-05T19:08:54.380Z,1.00
2017-10-05T19:11:22.551Z,0.98
2017-10-05T19:13:55.077Z,1.12
2017-10-05T19:16:24.202Z,0.98
2017-10-05T19:18:53.483Z,1.10
2017-10-05T19:21:26.501Z,0.90
2017-10-05T19:23:54.722Z,1.42
2017-10-05T19:26:23.573Z,1.48
2017-10-05T19:28:52.674Z,1.00
2017-10-05T19:31:19.510Z,2.00
2017-10-05T19:33:46.682Z,1.60
2017-10-05T19:36:14.161Z,1.40
2017-10-05T19:50:37.657Z,1.50
2017-10-05T19:53:10.774Z,1.15
2017-10-05T20:14:12.434Z,1.17
2017-10-05T20:16:53.857Z,1.00
2017-10-05T20:19:26.340Z,1.30
2017-10-05T20:22:02.872Z,1.20
2017-10-05T20:24:36.080Z,1.10
2017-10-05T20:27:07.852Z,1.20
2017-10-05T20:29:52.922Z,1.25
2017-10-05T20:32:26.560Z,1.15
2017-10-05T20:34:53.047Z,1.50
2017-10-05T20:37:19.631Z,1.30
2017-10-05T20:39:46.214Z,1.50
2017-10-05T20:42:12.773Z,1.50
2017-10-05T20:44:39.916Z,1.40
2017-10-05T20:47:06.927Z,1.40
2017-10-05T20:49:33.383Z,1.30
2017-10-05T20:51:59.927Z,1.45
2017-10-05T20:54:26.493Z,1.50
2017-10-05T20:56:53.044Z,1.65
2017-10-05T20:59:19.493Z,1.50
2017-10-05T21:01:46.699Z,1.45
2017-10-05T21:04:13.229Z,1.30
2017-10-05T21:06:39.759Z,1.50
2017-10-05T21:09:06.754Z,1.50
2017-10-05T21:11:34.132Z,1.40
2017-10-05T21:14:00.792Z,1.48
2017-10-05T21:16:27.350Z,1.50
2017-10-05T21:18:53.908Z,1.90
2017-10-05T21:21:20.468Z,1.45
2017-10-05T21:23:46.942Z,1.70
2017-10-05T21:26:13.481Z,1.50
2017-10-05T21:28:40.042Z,1.50
2017-10-05T21:31:07.315Z,1.60
2017-10-05T21:33:33.873Z,1.37
2017-10-05T21:36:00.533Z,1.70
2017-10-05T21:38:27.545Z,1.27
2017-10-05T21:40:54.165Z,1.70
2017-10-05T21:43:20.597Z,1.85
2017-10-05T21:45:47.182Z,1.42
2017-10-05T21:48:13.838Z,1.57
2017-10-05T21:50:40.405Z,1.60
2017-10-05T21:53:06.955Z,1.70
2017-10-05T21:55:33.519Z,1.40
2017-10-05T21:58:00.703Z,1.80
2017-10-05T22:00:27.167Z,1.62
2017-10-05T22:02:53.698Z,1.50
2017-10-05T22:05:20.979Z,1.52
2017-10-05T22:07:47.532Z,1.90
2017-10-05T22:10:14.746Z,1.50
2017-10-05T22:12:41.186Z,1.80
2017-10-05T22:15:07.718Z,1.50
2017-10-05T22:17:34.276Z,1.98
2017-10-05T22:20:00.732Z,1.67
2017-10-05T22:22:28.009Z,1.83
2017-10-05T22:24:54.566Z,1.60
2017-10-05T22:27:21.130Z,1.73
2017-10-05T22:29:47.684Z,1.70
2017-10-05T22:32:14.241Z,1.75
2017-10-05T22:34:40.806Z,1.67
2017-10-05T22:37:07.459Z,1.77
2017-10-05T22:39:34.019Z,1.70
2017-10-05T22:42:00.578Z,1.60
2017-10-05T22:44:26.993Z,1.60
2017-10-05T22:46:54.517Z,1.30
2017-10-05T22:49:20.970Z,1.95
2017-10-05T22:51:48.142Z,1.80
2017-10-05T22:54:14.637Z,1.60
2017-10-05T22:56:41.100Z,1.50
2017-10-05T22:59:07.620Z,1.70
2017-10-05T23:01:34.098Z,1.60
2017-10-05T23:04:00.627Z,1.50
2017-10-05T23:06:27.827Z,2.00
2017-10-05T23:08:54.971Z,1.93
2017-10-05T23:11:22.244Z,1.60
2017-10-05T23:13:48.801Z,1.60
2017-10-05T23:16:16.078Z,1.80
2017-10-05T23:18:42.534Z,1.50
2017-10-05T23:21:09.719Z,1.50
2017-10-05T23:23:36.264Z,1.70
2017-10-05T23:26:02.719Z,1.67
2017-10-05T23:28:29.281Z,1.42
2017-10-05T23:30:55.751Z,1.40
2017-10-05T23:33:22.209Z,1.80
2017-10-05T23:35:48.659Z,2.20
2017-10-05T23:38:15.131Z,2.10
2017-10-05T23:40:41.661Z,1.60
2017-10-05T23:43:08.227Z,1.70
2017-10-05T23:45:34.687Z,1.70
2017-10-05T23:48:01.557Z,1.40
2017-10-05T23:50:28.102Z,2.30
2017-10-05T23:52:54.660Z,2.08
2017-10-05T23:55:21.773Z,1.95
2017-10-05T23:57:48.389Z,1.70
